sensor_id;sensor_type;location;lat;lon;timestamp;P1;durP1;ratioP1;P2;durP2;ratioP2
8268;SDS011;4174;48.304;16.364;2023-04-01T00:05:43;4.23;;;0.70;;
8268;SDS011;4174;48.304;16.364;2023-04-01T00:11:45;3.60;;;0.80;;
8268;SDS011;4174;48.304;16.364;2023-04-01T00:17:49;4.10;;;0.90;;
8268;SDS011;4174;48.304;16.364;2023-04-01T00:23:52;4.30;;;0.80;;
8268;SDS011;4174;48.304;16.364;2023-04-01T00:29:55;3.40;;;0.80;;
8268;SDS011;4174;48.304;16.364;2023-04-01T00:36:07;3.75;;;0.70;;
8268;SDS011;4174;48.304;16.364;2023-04-01T00:42:18;3.50;;;0.80;;
8268;SDS011;4174;48.304;16.364;2023-04-01T00:48:23;4.90;;;1.10;;
8268;SDS011;4174;48.304;16.364;2023-04-01T00:54:24;4.75;;;0.80;;
8268;SDS011;4174;48.304;16.364;2023-04-01T01:00:27;3.55;;;0.75;;
8268;SDS011;4174;48.304;16.364;2023-04-01T01:06:37;3.93;;;0.80;;
8268;SDS011;4174;48.304;16.364;2023-04-01T01:19:24;4.30;;;0.80;;
8268;SDS011;4174;48.304;16.364;2023-04-01T01:25:25;4.10;;;0.80;;
8268;SDS011;4174;48.304;16.364;2023-04-01T01:31:50;3.93;;;0.80;;
8268;SDS011;4174;48.304;16.364;2023-04-01T01:38:11;4.80;;;1.00;;
8268;SDS011;4174;48.304;16.364;2023-04-01T01:44:12;4.43;;;1.03;;
8268;SDS011;4174;48.304;16.364;2023-04-01T01:50:15;3.80;;;0.70;;
8268;SDS011;4174;48.304;16.364;2023-04-01T01:56:18;3.57;;;0.70;;
8268;SDS011;4174;48.304;16.364;2023-04-01T02:02:21;4.80;;;0.70;;
8268;SDS011;4174;48.304;16.364;2023-04-01T02:08:27;5.22;;;0.70;;
8268;SDS011;4174;48.304;16.364;2023-04-01T02:14:37;3.70;;;0.60;;
8268;SDS011;4174;48.304;16.364;2023-04-01T02:20:38;3.22;;;0.60;;
8268;SDS011;4174;48.304;16.364;2023-04-01T02:26:40;2.83;;;0.52;;
8268;SDS011;4174;48.304;16.364;2023-04-01T02:32:43;4.20;;;0.70;;
8268;SDS011;4174;48.304;16.364;2023-04-01T02:38:46;4.43;;;0.73;;
8268;SDS011;4174;48.304;16.364;2023-04-01T02:44:48;4.83;;;0.60;;
8268;SDS011;4174;48.304;16.364;2023-04-01T02:50:52;3.87;;;0.67;;
8268;SDS011;4174;48.304;16.364;2023-04-01T02:56:54;3.80;;;0.70;;
8268;SDS011;4174;48.304;16.364;2023-04-01T03:02:58;3.03;;;0.60;;
8268;SDS011;4174;48.304;16.364;2023-04-01T03:09:01;5.00;;;0.80;;
8268;SDS011;4174;48.304;16.364;2023-04-01T03:15:05;4.93;;;0.80;;
8268;SDS011;4174;48.304;16.364;2023-04-01T03:21:13;3.80;;;0.87;;
8268;SDS011;4174;48.304;16.364;2023-04-01T03:27:15;4.90;;;0.90;;
8268;SDS011;4174;48.304;16.364;2023-04-01T03:33:19;5.67;;;0.90;;
8268;SDS011;4174;48.304;16.364;2023-04-01T03:39:23;4.60;;;0.80;;
8268;SDS011;4174;48.304;16.364;2023-04-01T03:45:26;4.17;;;0.80;;
8268;SDS011;4174;48.304;16.364;2023-04-01T03:51:29;4.63;;;0.80;;
8268;SDS011;4174;48.304;16.364;2023-04-01T03:57:33;5.27;;;0.90;;
8268;SDS011;4174;48.304;16.364;2023-04-01T04:03:36;4.83;;;0.90;;
8268;SDS011;4174;48.304;16.364;2023-04-01T04:09:40;5.20;;;1.00;;
8268;SDS011;4174;48.304;16.364;2023-04-01T04:15:44;3.75;;;0.88;;
8268;SDS011;4174;48.304;16.364;2023-04-01T04:21:47;3.90;;;0.90;;
8268;SDS011;4174;48.304;16.364;2023-04-01T04:27:50;5.72;;;0.80;;
8268;SDS011;4174;48.304;16.364;2023-04-01T04:33:54;3.87;;;0.80;;
8268;SDS011;4174;48.304;16.364;2023-04-01T04:39:58;4.17;;;0.90;;
8268;SDS011;4174;48.304;16.364;2023-04-01T04:46:05;4.17;;;0.80;;
8268;SDS011;4174;48.304;16.364;2023-04-01T04:52:08;4.68;;;1.00;;
8268;SDS011;4174;48.304;16.364;2023-04-01T04:58:12;5.50;;;0.90;;
8268;SDS011;4174;48.304;16.364;2023-04-01T05:04:15;4.77;;;0.87;;
8268;SDS011;4174;48.304;16.364;2023-04-01T05:10:19;3.72;;;0.75;;
8268;SDS011;4174;48.304;16.364;2023-04-01T05:16:22;3.97;;;0.77;;
8268;SDS011;4174;48.304;16.364;2023-04-01T05:22:26;3.90;;;0.80;;
8268;SDS011;4174;48.304;16.364;2023-04-01T05:28:30;5.53;;;0.77;;
8268;SDS011;4174;48.304;16.364;2023-04-01T05:34:33;4.30;;;0.80;;
8268;SDS011;4174;48.304;16.364;2023-04-01T05:40:37;4.17;;;0.80;;
8268;SDS011;4174;48.304;16.364;2023-04-01T05:46:41;3.37;;;0.70;;
8268;SDS011;4174;48.304;16.364;2023-04-01T05:52:43;4.30;;;0.73;;
8268;SDS011;4174;48.304;16.364;2023-04-01T05:58:50;3.92;;;0.77;;
8268;SDS011;4174;48.304;16.364;2023-04-01T06:04:50;3.90;;;0.85;;
8268;SDS011;4174;48.304;16.364;2023-04-01T06:11:12;4.77;;;0.73;;
8268;SDS011;4174;48.304;16.364;2023-04-01T06:23:44;3.50;;;0.63;;
8268;SDS011;4174;48.304;16.364;2023-04-01T06:30:05;4.57;;;0.60;;
8268;SDS011;4174;48.304;16.364;2023-04-01T06:36:19;3.30;;;0.70;;
8268;SDS011;4174;48.304;16.364;2023-04-01T06:42:34;3.70;;;0.70;;
8268;SDS011;4174;48.304;16.364;2023-04-01T06:48:41;3.00;;;0.70;;
8268;SDS011;4174;48.304;16.364;2023-04-01T06:55:18;4.72;;;0.80;;
8268;SDS011;4174;48.304;16.364;2023-04-01T07:01:21;5.00;;;1.30;;
8268;SDS011;4174;48.304;16.364;2023-04-01T07:13:46;4.87;;;0.83;;
8268;SDS011;4174;48.304;16.364;2023-04-01T07:20:03;3.27;;;0.83;;
8268;SDS011;4174;48.304;16.364;2023-04-01T07:26:17;4.20;;;0.80;;
8268;SDS011;4174;48.304;16.364;2023-04-01T07:32:32;4.45;;;0.80;;
8268;SDS011;4174;48.304;16.364;2023-04-01T07:38:40;3.97;;;0.80;;
8268;SDS011;4174;48.304;16.364;2023-04-01T07:44:58;4.53;;;0.80;;
8268;SDS011;4174;48.304;16.364;2023-04-01T07:58:29;5.30;;;1.00;;
8268;SDS011;4174;48.304;16.364;2023-04-01T08:10:32;3.40;;;0.70;;
8268;SDS011;4174;48.304;16.364;2023-04-01T08:16:42;4.22;;;1.00;;
8268;SDS011;4174;48.304;16.364;2023-04-01T08:23:00;3.70;;;0.90;;
8268;SDS011;4174;48.304;16.364;2023-04-01T08:35:24;3.58;;;0.80;;
8268;SDS011;4174;48.304;16.364;2023-04-01T08:41:35;7.05;;;0.98;;
8268;SDS011;4174;48.304;16.364;2023-04-01T08:47:42;5.87;;;1.10;;
8268;SDS011;4174;48.304;16.364;2023-04-01T08:53:55;4.53;;;1.00;;
8268;SDS011;4174;48.304;16.364;2023-04-01T09:00:38;3.60;;;0.90;;
8268;SDS011;4174;48.304;16.364;2023-04-01T09:07:05;4.53;;;1.00;;
8268;SDS011;4174;48.304;16.364;2023-04-01T09:13:45;5.35;;;1.20;;
8268;SDS011;4174;48.304;16.364;2023-04-01T09:19:52;4.10;;;0.93;;
8268;SDS011;4174;48.304;16.364;2023-04-01T09:26:14;3.80;;;0.93;;
8268;SDS011;4174;48.304;16.364;2023-04-01T09:38:49;3.28;;;0.80;;
8268;SDS011;4174;48.304;16.364;2023-04-01T09:44:59;2.72;;;0.50;;
8268;SDS011;4174;48.304;16.364;2023-04-01T09:52:10;2.37;;;0.50;;
8268;SDS011;4174;48.304;16.364;2023-04-01T09:57:34;2.77;;;0.53;;
8268;SDS011;4174;48.304;16.364;2023-04-01T10:03:59;3.37;;;0.60;;
8268;SDS011;4174;48.304;16.364;2023-04-01T10:35:29;2.27;;;0.40;;
8268;SDS011;4174;48.304;16.364;2023-04-01T10:54:36;3.30;;;0.60;;
8268;SDS011;4174;48.304;16.364;2023-04-01T11:00:53;4.30;;;0.77;;
8268;SDS011;4174;48.304;16.364;2023-04-01T11:07:07;3.65;;;0.80;;
8268;SDS011;4174;48.304;16.364;2023-04-01T11:13:22;2.53;;;0.50;;
8268;SDS011;4174;48.304;16.364;2023-04-01T11:26:04;2.47;;;0.45;;
8268;SDS011;4174;48.304;16.364;2023-04-01T11:44:46;2.53;;;0.50;;
8268;SDS011;4174;48.304;16.364;2023-04-01T11:51:09;2.70;;;0.50;;
8268;SDS011;4174;48.304;16.364;2023-04-01T11:57:30;1.83;;;0.30;;
8268;SDS011;4174;48.304;16.364;2023-04-01T12:03:50;1.87;;;0.40;;
8268;SDS011;4174;48.304;16.364;2023-04-01T12:10:32;2.50;;;0.40;;
8268;SDS011;4174;48.304;16.364;2023-04-01T12:23:24;2.17;;;0.40;;
8268;SDS011;4174;48.304;16.364;2023-04-01T12:36:15;2.72;;;0.50;;
8268;SDS011;4174;48.304;16.364;2023-04-01T12:42:35;2.50;;;0.55;;
8268;SDS011;4174;48.304;16.364;2023-04-01T12:55:37;4.43;;;0.93;;
8268;SDS011;4174;48.304;16.364;2023-04-01T13:01:48;2.42;;;0.50;;
8268;SDS011;4174;48.304;16.364;2023-04-01T13:21:01;2.10;;;0.50;;
8268;SDS011;4174;48.304;16.364;2023-04-01T13:27:18;2.43;;;0.37;;
8268;SDS011;4174;48.304;16.364;2023-04-01T13:39:57;2.10;;;0.40;;
8268;SDS011;4174;48.304;16.364;2023-04-01T13:46:06;1.97;;;0.40;;
8268;SDS011;4174;48.304;16.364;2023-04-01T13:59:25;2.60;;;0.50;;
8268;SDS011;4174;48.304;16.364;2023-04-01T14:05:51;2.43;;;0.43;;
8268;SDS011;4174;48.304;16.364;2023-04-01T14:12:07;2.12;;;0.40;;
8268;SDS011;4174;48.304;16.364;2023-04-01T14:31:24;2.00;;;0.40;;
8268;SDS011;4174;48.304;16.364;2023-04-01T14:37:36;2.43;;;0.43;;
8268;SDS011;4174;48.304;16.364;2023-04-01T14:43:49;1.87;;;0.40;;
8268;SDS011;4174;48.304;16.364;2023-04-01T14:50:02;2.45;;;0.30;;
8268;SDS011;4174;48.304;16.364;2023-04-01T14:56:11;2.47;;;0.40;;
8268;SDS011;4174;48.304;16.364;2023-04-01T15:08:56;2.63;;;0.47;;
8268;SDS011;4174;48.304;16.364;2023-04-01T15:21:41;3.65;;;0.40;;
8268;SDS011;4174;48.304;16.364;2023-04-01T15:27:50;2.70;;;0.50;;
8268;SDS011;4174;48.304;16.364;2023-04-01T15:40:15;1.95;;;0.40;;
8268;SDS011;4174;48.304;16.364;2023-04-01T15:46:36;2.63;;;0.50;;
8268;SDS011;4174;48.304;16.364;2023-04-01T15:52:55;2.15;;;0.47;;
8268;SDS011;4174;48.304;16.364;2023-04-01T15:59:19;2.80;;;0.50;;
8268;SDS011;4174;48.304;16.364;2023-04-01T16:05:50;3.60;;;0.80;;
8268;SDS011;4174;48.304;16.364;2023-04-01T16:12:04;3.20;;;0.60;;
8268;SDS011;4174;48.304;16.364;2023-04-01T16:18:20;2.53;;;0.50;;
8268;SDS011;4174;48.304;16.364;2023-04-01T16:30:38;2.97;;;0.60;;
8268;SDS011;4174;48.304;16.364;2023-04-01T16:36:52;2.93;;;0.50;;
8268;SDS011;4174;48.304;16.364;2023-04-01T16:49:31;2.37;;;0.50;;
8268;SDS011;4174;48.304;16.364;2023-04-01T17:01:53;3.10;;;0.70;;
8268;SDS011;4174;48.304;16.364;2023-04-01T17:08:17;2.70;;;0.60;;
8268;SDS011;4174;48.304;16.364;2023-04-01T17:14:42;3.47;;;0.60;;
8268;SDS011;4174;48.304;16.364;2023-04-01T17:20:55;3.12;;;0.70;;
8268;SDS011;4174;48.304;16.364;2023-04-01T17:27:06;2.40;;;0.50;;
8268;SDS011;4174;48.304;16.364;2023-04-01T17:33:33;2.47;;;0.40;;
8268;SDS011;4174;48.304;16.364;2023-04-01T17:40:15;1.90;;;0.40;;
8268;SDS011;4174;48.304;16.364;2023-04-01T17:46:01;3.00;;;0.60;;
8268;SDS011;4174;48.304;16.364;2023-04-01T17:52:21;3.30;;;0.70;;
8268;SDS011;4174;48.304;16.364;2023-04-01T17:58:44;3.60;;;0.70;;
8268;SDS011;4174;48.304;16.364;2023-04-01T18:17:40;2.90;;;0.60;;
8268;SDS011;4174;48.304;16.364;2023-04-01T18:23:57;3.30;;;0.80;;
8268;SDS011;4174;48.304;16.364;2023-04-01T18:30:07;2.87;;;0.60;;
8268;SDS011;4174;48.304;16.364;2023-04-01T18:36:26;2.75;;;0.55;;
8268;SDS011;4174;48.304;16.364;2023-04-01T18:42:50;3.37;;;0.80;;
8268;SDS011;4174;48.304;16.364;2023-04-01T18:49:05;3.47;;;0.90;;
8268;SDS011;4174;48.304;16.364;2023-04-01T18:55:29;3.60;;;0.93;;
8268;SDS011;4174;48.304;16.364;2023-04-01T19:01:43;4.10;;;0.98;;
8268;SDS011;4174;48.304;16.364;2023-04-01T19:08:46;4.23;;;1.00;;
8268;SDS011;4174;48.304;16.364;2023-04-01T19:20:57;3.97;;;1.20;;
8268;SDS011;4174;48.304;16.364;2023-04-01T19:27:18;3.70;;;0.90;;
8268;SDS011;4174;48.304;16.364;2023-04-01T19:33:24;3.40;;;0.80;;
8268;SDS011;4174;48.304;16.364;2023-04-01T19:45:52;3.80;;;1.00;;
8268;SDS011;4174;48.304;16.364;2023-04-01T19:52:20;3.30;;;0.80;;
8268;SDS011;4174;48.304;16.364;2023-04-01T19:58:37;3.12;;;0.70;;
8268;SDS011;4174;48.304;16.364;2023-04-01T20:04:59;3.03;;;0.60;;
8268;SDS011;4174;48.304;16.364;2023-04-01T20:17:30;3.00;;;0.67;;
8268;SDS011;4174;48.304;16.364;2023-04-01T20:23:38;2.80;;;0.60;;
8268;SDS011;4174;48.304;16.364;2023-04-01T20:29:55;3.20;;;0.70;;
8268;SDS011;4174;48.304;16.364;2023-04-01T20:36:06;3.10;;;0.70;;
8268;SDS011;4174;48.304;16.364;2023-04-01T20:49:30;2.70;;;0.60;;
8268;SDS011;4174;48.304;16.364;2023-04-01T21:02:16;2.65;;;0.60;;
8268;SDS011;4174;48.304;16.364;2023-04-01T21:08:29;3.43;;;0.67;;
8268;SDS011;4174;48.304;16.364;2023-04-01T21:14:51;3.13;;;0.70;;
8268;SDS011;4174;48.304;16.364;2023-04-01T21:21:07;3.08;;;0.70;;
8268;SDS011;4174;48.304;16.364;2023-04-01T21:33:38;4.12;;;0.80;;
8268;SDS011;4174;48.304;16.364;2023-04-01T21:40:52;3.60;;;0.90;;
8268;SDS011;4174;48.304;16.364;2023-04-01T21:52:53;3.37;;;0.80;;
8268;SDS011;4174;48.304;16.364;2023-04-01T22:05:31;3.30;;;0.80;;
8268;SDS011;4174;48.304;16.364;2023-04-01T22:11:44;3.37;;;0.70;;
8268;SDS011;4174;48.304;16.364;2023-04-01T22:18:11;3.12;;;0.70;;
8268;SDS011;4174;48.304;16.364;2023-04-01T22:24:16;3.53;;;0.75;;
8268;SDS011;4174;48.304;16.364;2023-04-01T22:30:34;2.90;;;0.60;;
8268;SDS011;4174;48.304;16.364;2023-04-01T22:36:40;3.33;;;0.80;;
8268;SDS011;4174;48.304;16.364;2023-04-01T22:43:01;4.73;;;0.90;;
8268;SDS011;4174;48.304;16.364;2023-04-01T22:49:12;3.08;;;0.80;;
8268;SDS011;4174;48.304;16.364;2023-04-01T22:55:38;3.50;;;0.80;;
8268;SDS011;4174;48.304;16.364;2023-04-01T23:01:40;3.40;;;0.80;;
8268;SDS011;4174;48.304;16.364;2023-04-01T23:07:48;3.23;;;0.80;;
8268;SDS011;4174;48.304;16.364;2023-04-01T23:14:00;3.72;;;0.80;;
8268;SDS011;4174;48.304;16.364;2023-04-01T23:20:10;3.30;;;0.80;;
8268;SDS011;4174;48.304;16.364;2023-04-01T23:26:36;4.40;;;0.80;;
8268;SDS011;4174;48.304;16.364;2023-04-01T23:32:40;3.23;;;0.70;;
8268;SDS011;4174;48.304;16.364;2023-04-01T23:38:46;3.13;;;0.80;;
8268;SDS011;4174;48.304;16.364;2023-04-01T23:44:46;3.37;;;0.70;;
8268;SDS011;4174;48.304;16.364;2023-04-01T23:50:51;6.23;;;1.40;;
8268;SDS011;4174;48.304;16.364;2023-04-01T23:56:54;3.13;;;0.80;;
